createdAt,value
2024-01-01T10:14:54.845Z,-5.10
2024-01-01T10:17:21.988Z,-5.10
2024-01-01T10:19:49.765Z,-5.20
2024-01-01T10:22:19.671Z,-5.20
2024-01-01T10:24:53.459Z,-5.30
2024-01-01T10:27:21.374Z,-5.40
2024-01-01T10:29:48.663Z,-5.40
2024-01-01T10:32:19.718Z,-5.60
2024-01-01T10:34:48.030Z,-5.40
2024-01-01T10:37:21.726Z,-5.40
2024-01-01T10:39:48.973Z,-5.40
2024-01-01T10:42:16.223Z,-5.30
2024-01-01T10:44:43.170Z,-5.50
2024-01-01T10:47:11.306Z,-5.70
2024-01-01T10:49:52.109Z,-5.60
2024-01-01T10:52:39.242Z,-5.50
2024-01-01T10:55:30.889Z,-5.50
2024-01-01T10:58:18.436Z,-5.50
2024-01-01T11:01:06.294Z,-5.70
2024-01-01T11:03:35.549Z,-5.50
2024-01-01T11:06:22.500Z,-5.70
2024-01-01T11:08:49.469Z,-5.70
2024-01-01T11:11:32.625Z,-5.60
2024-01-01T11:14:01.574Z,-5.50
2024-01-01T11:17:00.576Z,-5.40
2024-01-01T11:19:44.574Z,-5.50
2024-01-01T11:22:33.453Z,-5.60
2024-01-01T11:25:01.354Z,-5.60
2024-01-01T11:27:35.767Z,-5.60
2024-01-01T11:30:08.697Z,-5.60
2024-01-01T11:32:36.794Z,-5.50
2024-01-01T11:35:18.056Z,-5.40
2024-01-01T11:37:46.851Z,-5.50
2024-01-01T11:40:14.631Z,-5.50
2024-01-01T11:42:42.937Z,-5.40
2024-01-01T11:45:19.317Z,-5.30
2024-01-01T11:47:47.460Z,-5.40
2024-01-01T11:50:15.336Z,-5.60
2024-01-01T11:52:43.066Z,-5.50
2024-01-01T11:55:10.364Z,-5.60
2024-01-01T11:57:37.541Z,-5.60
2024-01-01T12:00:05.407Z,-5.60
2024-01-01T12:02:34.104Z,-5.60
2024-01-01T12:05:01.323Z,-5.70
2024-01-01T12:07:30.192Z,-5.70
2024-01-01T12:10:11.301Z,-5.60
2024-01-01T12:12:41.931Z,-5.70
2024-01-01T12:15:16.450Z,-5.80
2024-01-01T12:17:48.851Z,-5.80
2024-01-01T12:20:17.828Z,-5.90
2024-01-01T12:22:45.741Z,-5.90
2024-01-01T12:25:17.050Z,-5.90
2024-01-01T12:27:45.108Z,-5.80
2024-01-01T12:30:26.141Z,-5.90
2024-01-01T12:32:53.678Z,-6.00
2024-01-01T12:35:21.124Z,-5.90
2024-01-01T12:37:49.074Z,-5.90
2024-01-01T12:40:16.287Z,-5.80
2024-01-01T12:42:43.335Z,-5.80
2024-01-01T12:45:10.828Z,-5.70
2024-01-01T12:47:37.679Z,-5.80
2024-01-01T12:50:04.977Z,-5.70
2024-01-01T12:52:31.888Z,-5.80
2024-01-01T12:54:58.806Z,-5.70
2024-01-01T12:57:25.634Z,-5.70
2024-01-01T12:59:52.504Z,-5.70
2024-01-01T13:02:19.372Z,-5.70
2024-01-01T13:04:46.322Z,-5.80
2024-01-01T13:07:13.191Z,-5.80
2024-01-01T13:09:40.130Z,-5.80
2024-01-01T13:12:07.232Z,-5.80
2024-01-01T13:14:34.081Z,-5.90
2024-01-01T13:17:06.810Z,-6.00
2024-01-01T13:19:33.764Z,-6.00
2024-01-01T13:22:01.589Z,-6.00
2024-01-01T13:24:28.485Z,-5.90
2024-01-01T13:26:58.580Z,-6.00
2024-01-01T13:29:25.542Z,-6.00
2024-01-01T13:31:52.639Z,-6.00
2024-01-01T13:34:20.442Z,-6.00
2024-01-01T13:36:47.324Z,-6.20
2024-01-01T13:39:15.818Z,-6.10
2024-01-01T13:41:42.675Z,-6.10
2024-01-01T13:44:09.593Z,-6.10
2024-01-01T13:46:39.620Z,-6.20
2024-01-01T13:49:06.557Z,-6.20
2024-01-01T13:51:33.482Z,-6.20
2024-01-01T13:54:01.316Z,-6.20
2024-01-01T13:56:28.234Z,-6.20
2024-01-01T13:58:55.742Z,-6.20
2024-01-01T14:01:22.933Z,-6.30
2024-01-01T14:03:49.921Z,-6.20
2024-01-01T14:06:16.952Z,-6.30
2024-01-01T14:08:43.840Z,-6.30
2024-01-01T14:11:10.770Z,-6.30
2024-01-01T14:13:37.679Z,-6.30
2024-01-01T14:16:04.801Z,-6.30
2024-01-01T14:18:31.706Z,-6.40
2024-01-01T14:20:58.574Z,-6.40
2024-01-01T14:23:25.493Z,-6.40
2024-01-01T14:25:52.420Z,-6.40
2024-01-01T14:28:19.302Z,-6.50
2024-01-01T14:30:52.107Z,-6.40
2024-01-01T14:33:20.934Z,-6.50
2024-01-01T14:35:48.179Z,-6.50
2024-01-01T14:38:15.232Z,-6.40
2024-01-01T14:40:44.032Z,-6.50
2024-01-01T14:43:11.494Z,-6.50
2024-01-01T14:45:38.323Z,-6.60
2024-01-01T14:48:05.648Z,-6.50
2024-01-01T14:50:39.641Z,-6.50
2024-01-01T14:53:07.949Z,-6.60
2024-01-01T14:55:37.100Z,-6.70
2024-01-01T14:58:04.313Z,-6.50
2024-01-01T15:00:31.494Z,-6.60
2024-01-01T15:02:58.694Z,-6.60
2024-01-01T15:05:27.377Z,-6.60
2024-01-01T15:07:54.464Z,-6.50
2024-01-01T15:10:21.393Z,-6.50
2024-01-01T15:12:48.277Z,-6.50
2024-01-01T15:15:15.678Z,-6.40
2024-01-01T15:17:42.778Z,-6.40
2024-01-01T15:20:11.218Z,-6.40
2024-01-01T15:22:38.100Z,-6.40
2024-01-01T15:25:05.489Z,-6.40
2024-01-01T15:27:32.389Z,-6.50
2024-01-01T15:29:59.228Z,-6.40
2024-01-01T15:32:26.190Z,-6.60
2024-01-01T15:34:53.122Z,-6.60
2024-01-01T15:37:20.858Z,-6.60
2024-01-01T15:39:47.808Z,-6.60
2024-01-01T15:42:14.642Z,-6.60
2024-01-01T15:44:41.518Z,-6.40
2024-01-01T15:47:08.431Z,-6.50
2024-01-01T15:49:36.066Z,-6.50
2024-01-01T15:52:07.670Z,-6.50
2024-01-01T15:54:38.621Z,-6.40
2024-01-01T15:57:06.333Z,-6.50
2024-01-01T15:59:33.591Z,-6.50
2024-01-01T16:02:00.494Z,-6.60
2024-01-01T16:04:27.450Z,-6.60
2024-01-01T16:06:54.312Z,-6.60
2024-01-01T16:09:21.400Z,-6.70
2024-01-01T16:11:48.305Z,-6.70
2024-01-01T16:14:15.233Z,-6.70
2024-01-01T16:16:42.106Z,-6.70
2024-01-01T16:19:17.359Z,-6.70
2024-01-01T16:21:55.195Z,-6.80
2024-01-01T16:24:24.783Z,-6.80
2024-01-01T16:26:53.648Z,-6.80
2024-01-01T16:29:20.636Z,-6.80
2024-01-01T16:31:47.561Z,-6.80
2024-01-01T16:34:14.529Z,-6.80
2024-01-01T16:36:43.009Z,-6.90
2024-01-01T16:39:11.179Z,-6.90
2024-01-01T16:41:38.056Z,-6.90
2024-01-01T16:44:04.998Z,-7.00
2024-01-01T16:46:31.812Z,-6.90
2024-01-01T16:48:58.702Z,-7.00
2024-01-01T16:51:25.577Z,-7.00
2024-01-01T16:53:52.389Z,-7.00
2024-01-01T16:56:19.408Z,-7.00
2024-01-01T16:58:46.348Z,-6.90
2024-01-01T17:01:13.356Z,-7.00
2024-01-01T17:03:40.256Z,-7.00
2024-01-01T17:06:09.251Z,-6.80
2024-01-01T17:08:36.175Z,-6.90
2024-01-01T17:11:06.321Z,-6.90
2024-01-01T17:13:33.299Z,-7.00
2024-01-01T17:16:00.261Z,-7.00
2024-01-01T17:18:27.137Z,-6.90
2024-01-01T17:20:53.999Z,-7.00
2024-01-01T17:23:20.861Z,-6.90
2024-01-01T17:25:47.787Z,-6.90
2024-01-01T17:28:14.662Z,-7.00
2024-01-01T17:30:41.605Z,-6.90
2024-01-01T17:33:09.434Z,-7.00
2024-01-01T17:35:37.975Z,-7.10
2024-01-01T17:38:05.129Z,-7.00
2024-01-01T17:40:32.674Z,-7.00
2024-01-01T17:42:59.545Z,-7.10
2024-01-01T17:45:26.435Z,-7.00
2024-01-01T17:47:53.463Z,-7.10
2024-01-01T17:50:20.350Z,-7.10
2024-01-01T17:52:47.329Z,-7.20
2024-01-01T17:55:14.462Z,-7.20
2024-01-01T17:57:42.283Z,-7.20
2024-01-01T18:00:09.531Z,-7.10
2024-01-01T18:02:36.443Z,-7.30
2024-01-01T18:05:05.447Z,-7.30
2024-01-01T18:07:32.497Z,-7.20
2024-01-01T18:09:59.266Z,-7.30
2024-01-01T18:12:26.073Z,-7.30
2024-01-01T18:14:52.874Z,-7.30
2024-01-01T18:17:20.653Z,-7.20
2024-01-01T18:19:48.780Z,-7.30
2024-01-01T18:22:16.899Z,-7.40
2024-01-01T18:24:43.804Z,-7.40
2024-01-01T18:27:10.666Z,-7.40
2024-01-01T18:29:37.645Z,-7.50
2024-01-01T18:32:04.816Z,-7.40
2024-01-01T18:34:31.676Z,-7.30
2024-01-01T18:36:58.542Z,-7.30
2024-01-01T18:39:25.545Z,-7.30
2024-01-01T18:41:52.432Z,-7.40
2024-01-01T18:44:19.343Z,-7.50
2024-01-01T18:46:46.326Z,-7.40
2024-01-01T18:49:13.567Z,-7.50
2024-01-01T18:51:40.732Z,-7.60
2024-01-01T18:54:07.708Z,-7.70
2024-01-01T18:56:34.562Z,-7.70
2024-01-01T18:59:01.511Z,-7.70
2024-01-01T19:01:28.384Z,-7.70
2024-01-01T19:04:01.105Z,-7.80
2024-01-01T19:06:30.570Z,-7.80
2024-01-01T19:08:57.482Z,-7.80
2024-01-01T19:11:24.390Z,-7.80
2024-01-01T19:13:51.371Z,-7.70
2024-01-01T19:16:19.768Z,-7.90
2024-01-01T19:18:49.146Z,-7.90
2024-01-01T19:21:16.258Z,-8.00
2024-01-01T19:23:47.315Z,-8.10
2024-01-01T19:26:15.854Z,-8.10
2024-01-01T19:28:43.159Z,-8.00
2024-01-01T19:31:10.064Z,-8.10
2024-01-01T19:33:37.026Z,-8.10
2024-01-01T19:36:04.194Z,-8.20
2024-01-01T19:38:32.162Z,-8.20
2024-01-01T19:40:59.024Z,-8.20
2024-01-01T19:43:25.863Z,-8.30
2024-01-01T19:45:56.201Z,-8.20
2024-01-01T19:48:24.131Z,-8.30
2024-01-01T19:50:51.128Z,-8.40
2024-01-01T19:53:26.659Z,-8.30
2024-01-01T19:55:55.035Z,-8.40
2024-01-01T19:58:24.341Z,-8.40
2024-01-01T20:00:51.572Z,-8.40
2024-01-01T20:03:18.645Z,-8.40
2024-01-01T20:05:45.645Z,-8.60
2024-01-01T20:08:12.579Z,-8.60
2024-01-01T20:10:39.923Z,-8.60
2024-01-01T20:13:07.209Z,-8.60
2024-01-01T20:15:34.198Z,-8.60
2024-01-01T20:18:01.969Z,-8.70
2024-01-01T20:20:29.144Z,-8.70
2024-01-01T20:22:56.253Z,-8.70
2024-01-01T20:25:23.191Z,-8.70
2024-01-01T20:27:50.194Z,-8.70
2024-01-01T20:30:17.134Z,-8.60
2024-01-01T20:32:44.110Z,-8.80
2024-01-01T20:35:11.212Z,-8.90
2024-01-01T20:37:39.654Z,-8.90
2024-01-01T20:40:07.407Z,-9.00
2024-01-01T20:42:37.443Z,-8.90
2024-01-01T20:45:04.742Z,-9.00
2024-01-01T20:47:31.752Z,-8.80
2024-01-01T20:49:58.877Z,-8.90
2024-01-01T20:52:28.353Z,-8.90
2024-01-01T20:54:57.290Z,-8.90
2024-01-01T20:57:24.842Z,-9.00
2024-01-01T20:59:52.069Z,-9.00
2024-01-01T21:02:19.592Z,-9.10
2024-01-01T21:04:46.721Z,-9.40
2024-01-01T21:07:14.404Z,-9.50
2024-01-01T21:09:41.513Z,-9.50
2024-01-01T21:12:08.774Z,-9.40
2024-01-01T21:14:35.746Z,-9.50
2024-01-01T21:17:02.694Z,-9.70
2024-01-01T21:19:29.636Z,-9.60
2024-01-01T21:21:57.302Z,-9.60
2024-01-01T21:24:24.137Z,-9.70
2024-01-01T21:26:51.042Z,-9.90
2024-01-01T21:29:17.907Z,-9.90
2024-01-01T21:31:44.939Z,-9.90
2024-01-01T21:34:11.824Z,-10.00
2024-01-01T21:36:38.688Z,-10.00
2024-01-01T21:39:05.585Z,-10.00
2024-01-01T21:41:32.557Z,-10.10
2024-01-01T21:44:00.705Z,-10.20
2024-01-01T21:46:27.755Z,-10.20
2024-01-01T21:48:54.786Z,-10.20
2024-01-01T21:51:21.800Z,-10.20
2024-01-01T21:53:48.765Z,-10.20
2024-01-01T21:56:15.701Z,-10.30
2024-01-01T21:58:42.545Z,-10.20
2024-01-01T22:01:09.513Z,-10.20
2024-01-01T22:03:36.484Z,-10.30
2024-01-01T22:06:03.601Z,-10.30
2024-01-01T22:08:30.692Z,-10.30
2024-01-01T22:10:58.872Z,-10.30
2024-01-01T22:13:26.855Z,-10.30
2024-01-01T22:15:53.812Z,-10.40
2024-01-01T22:18:20.716Z,-10.40
2024-01-01T22:20:48.706Z,-10.40
2024-01-01T22:23:17.483Z,-10.50
2024-01-01T22:25:44.483Z,-10.40
2024-01-01T22:28:11.354Z,-10.50
2024-01-01T22:30:38.225Z,-10.50
2024-01-01T22:33:05.642Z,-10.50
2024-01-01T22:35:32.798Z,-10.60
2024-01-01T22:37:59.816Z,-10.40
2024-01-01T22:40:26.692Z,-10.50
2024-01-01T22:42:53.596Z,-10.60
2024-01-01T22:45:20.492Z,-10.70
2024-01-01T22:47:47.763Z,-10.70
2024-01-01T22:50:15.181Z,-10.80
2024-01-01T22:52:42.051Z,-10.70
2024-01-01T22:55:09.158Z,-10.70
2024-01-01T22:57:36.177Z,-10.80
2024-01-01T23:00:13.637Z,-10.80
2024-01-01T23:02:40.534Z,-10.80
2024-01-01T23:05:07.636Z,-10.80
2024-01-01T23:07:34.545Z,-10.80
2024-01-01T23:10:01.461Z,-10.80
2024-01-01T23:12:28.339Z,-10.90
2024-01-01T23:14:55.218Z,-10.90
2024-01-01T23:17:22.082Z,-11.00
2024-01-01T23:19:48.965Z,-11.00
2024-01-01T23:22:15.951Z,-10.90
2024-01-01T23:24:42.827Z,-10.90
2024-01-01T23:27:09.709Z,-11.00
2024-01-01T23:29:36.599Z,-10.90
2024-01-01T23:32:03.675Z,-11.00
2024-01-01T23:34:30.730Z,-11.10
2024-01-01T23:36:57.675Z,-11.00
2024-01-01T23:39:24.682Z,-11.10
2024-01-01T23:41:51.532Z,-11.10
2024-01-01T23:44:18.417Z,-11.00
2024-01-01T23:46:45.284Z,-11.10
2024-01-01T23:49:12.512Z,-11.10
2024-01-01T23:51:39.430Z,-11.10
2024-01-01T23:54:06.269Z,-11.20
2024-01-01T23:56:33.315Z,-11.10
2024-01-01T23:59:00.353Z,-11.10
